Time;durP1;ratioP1;P1;durP2;ratioP2;P2;SDS_P1;SDS_P2;PMS_P1;PMS_P2;Temp;Humidity;BMP_temperature;BMP_pressure;BME280_temperature;BME280_humidity;BME280_pressure;Samples;Min_cycle;Max_cycle;Signal;HPM_P1;HPM_P2
2023/05/13 00:01:25;;;;;;;10.50;3.17;;;16.90;65.60;;;;;;6343051;22;20380;-76
2023/05/13 00:03:50;;;;;;;12.27;2.80;;;16.90;65.40;;;;;;6341307;22;20106;-77
2023/05/13 00:06:16;;;;;;;9.13;2.50;;;16.90;65.70;;;;;;6340932;22;19995;-76
2023/05/13 00:08:42;;;;;;;8.88;2.63;;;16.90;66.00;;;;;;6341004;22;20066;-77
2023/05/13 00:11:07;;;;;;;5.72;2.75;;;16.90;66.00;;;;;;6340897;22;20006;-76
2023/05/13 00:13:33;;;;;;;9.20;2.65;;;16.90;65.70;;;;;;6340852;22;20049;-77
2023/05/13 00:15:59;;;;;;;11.55;2.85;;;16.90;65.90;;;;;;6341162;22;19995;-77
2023/05/13 00:18:25;;;;;;;9.05;2.70;;;16.80;65.80;;;;;;6343937;22;20377;-76
2023/05/13 00:20:51;;;;;;;9.55;2.72;;;16.80;66.00;;;;;;6342790;22;20002;-77
2023/05/13 00:23:17;;;;;;;7.78;2.55;;;16.80;66.00;;;;;;6341108;22;20011;-77
2023/05/13 00:25:43;;;;;;;9.68;2.70;;;16.80;66.20;;;;;;6340978;22;20018;-77
2023/05/13 00:28:09;;;;;;;6.72;2.25;;;16.70;65.90;;;;;;6340843;22;20077;-78
2023/05/13 00:30:35;;;;;;;9.35;2.03;;;16.70;66.00;;;;;;6341161;22;20003;-77
2023/05/13 00:33:01;;;;;;;9.75;1.80;;;16.60;66.10;;;;;;6340988;22;20074;-77
2023/05/13 00:35:27;;;;;;;8.70;2.25;;;16.70;66.00;;;;;;6340919;22;20083;-78
2023/05/13 00:37:52;;;;;;;8.70;2.30;;;16.70;66.10;;;;;;6340831;22;20027;-77
2023/05/13 00:40:23;;;;;;;6.82;1.80;;;16.60;65.80;;;;;;6340987;22;20024;-76
2023/05/13 00:42:49;;;;;;;4.63;1.63;;;16.70;66.00;;;;;;6340806;22;20142;-77
2023/05/13 00:45:16;;;;;;;5.32;1.70;;;16.70;65.80;;;;;;6340811;22;20007;-75
2023/05/13 00:47:42;;;;;;;9.55;2.25;;;16.80;66.00;;;;;;6340998;22;20040;-77
2023/05/13 00:50:09;;;;;;;7.55;2.08;;;16.80;66.00;;;;;;6340708;22;20010;-77
2023/05/13 00:52:39;;;;;;;5.57;2.00;;;16.80;66.10;;;;;;6340819;22;20432;-77
2023/05/13 00:55:06;;;;;;;7.60;2.40;;;16.80;66.00;;;;;;6340652;22;20366;-76
2023/05/13 00:57:32;;;;;;;6.10;1.92;;;16.80;66.00;;;;;;6340501;22;20422;-76
2023/05/13 00:59:58;;;;;;;7.53;1.98;;;16.70;66.00;;;;;;6340757;22;20030;-76
2023/05/13 01:02:48;;;;;;;7.40;2.35;;;16.70;66.40;;;;;;6343024;22;20448;-78
2023/05/13 01:05:17;;;;;;;5.75;2.35;;;16.70;66.50;;;;;;6340838;22;20051;-78
2023/05/13 01:07:50;;;;;;;7.30;2.08;;;16.70;66.30;;;;;;6339599;22;20070;-78
2023/05/13 01:10:36;;;;;;;7.78;2.05;;;16.70;66.90;;;;;;6339483;22;20013;-78
2023/05/13 01:13:08;;;;;;;6.85;2.15;;;16.70;66.70;;;;;;6338888;22;20063;-76
2023/05/13 01:15:43;;;;;;;9.13;1.98;;;16.60;66.40;;;;;;6339028;22;19999;-78
2023/05/13 01:18:13;;;;;;;6.60;1.80;;;16.60;66.90;;;;;;6339204;22;20074;-77
2023/05/13 01:20:41;;;;;;;8.00;2.03;;;16.50;66.70;;;;;;6339250;22;19998;-77
2023/05/13 01:23:07;;;;;;;7.10;2.05;;;16.50;66.60;;;;;;6339097;22;20086;-77
2023/05/13 01:25:34;;;;;;;6.18;2.45;;;16.40;67.00;;;;;;6339099;22;20002;-77
2023/05/13 01:28:00;;;;;;;6.03;2.38;;;16.40;66.70;;;;;;6339180;22;19995;-76
2023/05/13 01:30:26;;;;;;;6.05;2.15;;;16.40;67.20;;;;;;6339283;22;20003;-76
2023/05/13 01:32:52;;;;;;;7.60;2.50;;;16.40;67.30;;;;;;6311241;22;20009;-76
2023/05/13 01:35:19;;;;;;;6.43;2.60;;;16.30;67.30;;;;;;6337178;22;20067;-77
2023/05/13 01:37:46;;;;;;;9.82;2.22;;;16.30;67.30;;;;;;6338166;22;20002;-77
2023/05/13 01:40:12;;;;;;;6.85;2.40;;;16.30;67.60;;;;;;6338976;22;19999;-78
2023/05/13 01:42:38;;;;;;;11.27;2.28;;;16.20;67.60;;;;;;6338909;22;20047;-77
2023/05/13 01:45:05;;;;;;;11.73;2.17;;;16.30;67.60;;;;;;6340088;22;20430;-78
2023/05/13 01:47:31;;;;;;;7.70;2.03;;;16.30;67.90;;;;;;6339485;22;20002;-76
2023/05/13 01:49:57;;;;;;;7.65;2.15;;;16.30;67.50;;;;;;6311250;22;20026;-77
2023/05/13 01:52:22;;;;;;;10.88;2.25;;;16.30;67.90;;;;;;6339225;22;20066;-77
2023/05/13 01:54:48;;;;;;;7.90;2.50;;;16.40;67.80;;;;;;6338980;22;20019;-77
2023/05/13 01:57:14;;;;;;;8.23;2.20;;;16.40;67.60;;;;;;6338719;22;19999;-77
2023/05/13 01:59:39;;;;;;;11.45;2.30;;;16.40;67.70;;;;;;6338829;22;20340;-79
2023/05/13 02:02:05;;;;;;;7.10;2.28;;;16.50;67.70;;;;;;6338106;22;20003;-77
2023/05/13 02:04:31;;;;;;;6.00;2.35;;;16.50;67.70;;;;;;6338761;22;20014;-76
2023/05/13 02:06:57;;;;;;;7.35;2.22;;;16.60;67.80;;;;;;6338792;22;19998;-78
2023/05/13 02:09:23;;;;;;;7.32;2.22;;;16.60;68.00;;;;;;6339011;22;20416;-78
2023/05/13 02:11:48;;;;;;;7.82;2.20;;;16.60;67.80;;;;;;6338700;22;20002;-77
2023/05/13 02:14:14;;;;;;;5.32;2.08;;;16.60;67.90;;;;;;6338585;22;20006;-77
2023/05/13 02:16:40;;;;;;;7.55;2.15;;;16.60;67.80;;;;;;6338666;22;20060;-77
2023/05/13 02:19:06;;;;;;;6.78;1.83;;;16.60;68.00;;;;;;6337839;22;20002;-77
2023/05/13 02:21:31;;;;;;;7.53;2.40;;;16.60;67.90;;;;;;6338740;22;20305;-77
2023/05/13 02:23:57;;;;;;;7.43;2.42;;;16.60;68.00;;;;;;6338358;22;20011;-77
2023/05/13 02:26:23;;;;;;;5.75;1.92;;;16.60;67.70;;;;;;6310947;22;20010;-77
2023/05/13 02:28:49;;;;;;;8.35;2.15;;;16.50;68.10;;;;;;6340151;22;19999;-77
2023/05/13 02:31:15;;;;;;;5.90;2.28;;;16.40;68.10;;;;;;6340370;22;19995;-76
2023/05/13 02:33:40;;;;;;;6.57;2.50;;;16.40;68.20;;;;;;6338379;22;19999;-77
2023/05/13 02:36:06;;;;;;;7.28;2.28;;;16.40;68.40;;;;;;6338469;22;20324;-77
2023/05/13 02:38:32;;;;;;;7.05;2.15;;;16.40;68.50;;;;;;6338724;22;20428;-77
2023/05/13 02:40:59;;;;;;;8.82;2.60;;;16.40;68.60;;;;;;6338233;22;20412;-78
2023/05/13 02:43:26;;;;;;;9.50;2.17;;;16.40;68.50;;;;;;6338167;22;20314;-77
2023/05/13 02:45:52;;;;;;;10.10;2.70;;;16.40;68.70;;;;;;6338391;22;19999;-77
2023/05/13 02:48:18;;;;;;;9.30;2.35;;;16.40;68.50;;;;;;6338289;22;20002;-77
2023/05/13 02:50:43;;;;;;;7.68;2.33;;;16.50;68.50;;;;;;6338403;22;20374;-77
2023/05/13 02:53:09;;;;;;;7.47;2.13;;;16.50;68.60;;;;;;6338458;22;20006;-77
2023/05/13 02:55:35;;;;;;;5.85;2.13;;;16.60;68.40;;;;;;6338010;22;20165;-77
2023/05/13 02:58:00;;;;;;;8.48;2.38;;;16.60;68.40;;;;;;6337889;22;20328;-77
2023/05/13 03:00:26;;;;;;;9.60;1.83;;;16.60;68.40;;;;;;6337811;22;20451;-77
2023/05/13 03:02:52;;;;;;;7.30;2.25;;;16.60;68.30;;;;;;6338171;22;20022;-78
2023/05/13 03:05:17;;;;;;;8.75;2.72;;;16.60;68.40;;;;;;6338221;22;20140;-77
2023/05/13 03:07:43;;;;;;;7.43;2.10;;;16.50;68.40;;;;;;6337835;22;20024;-78
2023/05/13 03:10:09;;;;;;;8.32;2.00;;;16.50;68.50;;;;;;6338134;22;20412;-77
2023/05/13 03:12:35;;;;;;;5.25;1.98;;;16.50;68.50;;;;;;6338848;22;20024;-76
2023/05/13 03:15:00;;;;;;;5.80;2.00;;;16.50;68.60;;;;;;6339971;22;20045;-77
2023/05/13 03:17:29;;;;;;;6.60;1.95;;;16.50;68.20;;;;;;6338459;22;19995;-77
2023/05/13 03:19:55;;;;;;;6.38;1.60;;;16.50;68.30;;;;;;6337798;22;20014;-77
2023/05/13 03:22:21;;;;;;;7.53;2.05;;;16.50;68.20;;;;;;6338105;22;19999;-77
2023/05/13 03:24:46;;;;;;;8.63;2.15;;;16.40;68.50;;;;;;6337716;22;20491;-78
2023/05/13 03:27:12;;;;;;;5.30;1.90;;;16.40;68.50;;;;;;6338105;22;20420;-77
2023/05/13 03:29:38;;;;;;;8.85;2.33;;;16.40;68.30;;;;;;6338056;22;20003;-79
2023/05/13 03:32:05;;;;;;;5.05;1.83;;;16.40;68.50;;;;;;6337703;22;20048;-78
2023/05/13 03:34:32;;;;;;;7.80;2.05;;;16.40;68.70;;;;;;6337732;22;20052;-77
2023/05/13 03:36:58;;;;;;;8.30;2.28;;;16.40;68.50;;;;;;6337991;22;20036;-77
2023/05/13 03:39:25;;;;;;;7.50;2.60;;;16.40;68.60;;;;;;6337828;22;20066;-78
2023/05/13 03:41:51;;;;;;;8.63;2.50;;;16.50;68.70;;;;;;6338029;22;20002;-77
2023/05/13 03:44:17;;;;;;;5.75;1.90;;;16.50;68.70;;;;;;6337444;22;20033;-77
2023/05/13 03:46:43;;;;;;;7.38;2.00;;;16.50;68.80;;;;;;6338040;22;20429;-78
2023/05/13 03:49:08;;;;;;;6.65;2.22;;;16.50;68.40;;;;;;6337867;22;20167;-77
2023/05/13 03:51:34;;;;;;;8.02;2.30;;;16.40;68.80;;;;;;6338003;22;20379;-77
2023/05/13 03:54:01;;;;;;;6.63;2.10;;;16.50;68.80;;;;;;6310176;22;20394;-78
2023/05/13 03:56:27;;;;;;;9.02;2.30;;;16.40;68.80;;;;;;6337912;22;20022;-78
2023/05/13 03:58:53;;;;;;;8.15;2.70;;;16.40;68.80;;;;;;6341792;22;20344;-78
2023/05/13 04:01:20;;;;;;;9.90;2.83;;;16.40;69.10;;;;;;6337835;22;20070;-77
2023/05/13 04:03:46;;;;;;;8.98;2.40;;;16.50;68.90;;;;;;6337287;22;20448;-76
2023/05/13 04:06:13;;;;;;;9.38;2.28;;;16.50;69.00;;;;;;6337575;22;19999;-78
2023/05/13 04:08:39;;;;;;;6.75;2.22;;;16.50;68.90;;;;;;6337600;22;19999;-76
2023/05/13 04:11:05;;;;;;;7.32;2.08;;;16.40;69.10;;;;;;6337523;22;20113;-78
2023/05/13 04:13:35;;;;;;;13.38;2.22;;;16.40;69.20;;;;;;6337509;22;20038;-78
2023/05/13 04:16:01;;;;;;;5.68;2.17;;;16.40;68.70;;;;;;6337449;22;19999;-77
2023/05/13 04:18:29;;;;;;;6.53;2.28;;;16.30;68.80;;;;;;6337960;22;20013;-78
2023/05/13 04:20:55;;;;;;;7.22;2.40;;;16.20;68.80;;;;;;6338132;22;20007;-76
2023/05/13 04:23:21;;;;;;;7.82;2.65;;;16.20;68.90;;;;;;6337549;22;20060;-77
2023/05/13 04:25:51;;;;;;;11.60;2.58;;;16.10;69.10;;;;;;6337638;22;20525;-77
2023/05/13 04:28:20;;;;;;;6.45;2.10;;;16.10;68.90;;;;;;6337629;22;20003;-77
2023/05/13 04:30:46;;;;;;;5.72;2.33;;;16.10;70.00;;;;;;6337500;22;20128;-77
2023/05/13 04:33:11;;;;;;;7.80;2.00;;;16.10;69.00;;;;;;6337214;22;20031;-77
2023/05/13 04:35:37;;;;;;;6.78;2.08;;;16.10;68.80;;;;;;6337458;22;20006;-76
2023/05/13 04:38:03;;;;;;;6.55;1.67;;;16.10;68.90;;;;;;6337532;22;19999;-76
2023/05/13 04:40:29;;;;;;;9.73;2.20;;;16.10;68.70;;;;;;6337579;22;20093;-77
2023/05/13 04:42:55;;;;;;;8.57;1.90;;;16.10;68.40;;;;;;6339496;22;20057;-77
2023/05/13 04:45:21;;;;;;;5.25;1.80;;;16.00;68.40;;;;;;6339686;22;20014;-76
2023/05/13 04:47:47;;;;;;;5.95;1.80;;;16.00;68.40;;;;;;6338984;22;20002;-77
2023/05/13 04:50:13;;;;;;;6.95;2.20;;;16.10;68.20;;;;;;6339156;22;20106;-78
2023/05/13 04:52:41;;;;;;;7.40;1.60;;;16.10;68.20;;;;;;6339285;22;20541;-79
2023/05/13 04:55:08;;;;;;;7.45;1.70;;;16.00;68.00;;;;;;6339244;22;20010;-77
2023/05/13 04:57:34;;;;;;;6.78;1.65;;;16.10;68.10;;;;;;6339388;22;19995;-77
2023/05/13 05:00:00;;;;;;;6.22;2.00;;;16.20;68.10;;;;;;6339610;22;20056;-77
2023/05/13 05:02:28;;;;;;;7.70;2.45;;;16.20;68.10;;;;;;6339218;22;20021;-77
2023/05/13 05:04:57;;;;;;;7.75;1.92;;;16.20;67.50;;;;;;6339010;22;20338;-77
2023/05/13 05:07:24;;;;;;;7.05;2.03;;;16.10;68.10;;;;;;6339204;22;20021;-76
2023/05/13 05:09:50;;;;;;;7.57;2.20;;;16.10;67.70;;;;;;6339165;22;20003;-77
2023/05/13 05:12:16;;;;;;;8.32;2.13;;;16.10;67.70;;;;;;6339549;22;20009;-76
2023/05/13 05:14:41;;;;;;;10.48;2.33;;;16.20;67.40;;;;;;6339239;22;19995;-78
2023/05/13 05:17:07;;;;;;;8.90;2.25;;;16.20;67.50;;;;;;6338956;22;20137;-77
2023/05/13 05:19:33;;;;;;;7.82;1.85;;;16.20;67.40;;;;;;6339120;22;19998;-78
2023/05/13 05:21:58;;;;;;;4.00;1.50;;;16.30;67.20;;;;;;6338872;22;20112;-76
2023/05/13 05:24:24;;;;;;;8.68;1.88;;;16.30;67.50;;;;;;6339085;22;20012;-77
2023/05/13 05:26:50;;;;;;;8.80;1.90;;;16.40;67.40;;;;;;6340152;22;19995;-78
2023/05/13 05:29:16;;;;;;;9.00;2.00;;;16.50;67.20;;;;;;6341724;22;19998;-76
2023/05/13 05:31:42;;;;;;;4.53;2.17;;;16.50;67.40;;;;;;6339165;22;20006;-78
2023/05/13 05:34:08;;;;;;;6.82;2.35;;;16.40;67.30;;;;;;6339104;22;20038;-78
2023/05/13 05:36:33;;;;;;;7.68;2.10;;;16.50;67.40;;;;;;6338945;22;19999;-76
2023/05/13 05:38:59;;;;;;;8.48;2.42;;;16.50;67.40;;;;;;6338985;22;20003;-78
2023/05/13 05:41:25;;;;;;;6.22;1.80;;;16.50;67.40;;;;;;6339040;22;19999;-78
2023/05/13 05:43:51;;;;;;;6.82;1.80;;;16.60;67.40;;;;;;6339187;22;20017;-78
2023/05/13 05:46:16;;;;;;;5.20;2.15;;;16.60;67.30;;;;;;6338699;22;19995;-78
2023/05/13 05:48:42;;;;;;;8.25;1.95;;;16.60;67.10;;;;;;6338573;22;20006;-78
2023/05/13 05:51:08;;;;;;;4.93;1.85;;;16.60;67.00;;;;;;6338746;22;19995;-78
2023/05/13 05:53:36;;;;;;;5.63;2.08;;;16.60;66.90;;;;;;6339406;22;20003;-79
2023/05/13 05:56:03;;;;;;;6.78;1.83;;;16.70;67.10;;;;;;6338873;22;20029;-78
2023/05/13 05:58:28;;;;;;;7.38;1.70;;;16.70;67.00;;;;;;6338627;22;20025;-78
2023/05/13 06:00:55;;;;;;;3.75;1.73;;;16.60;66.80;;;;;;6338290;22;20468;-77
2023/05/13 06:03:21;;;;;;;5.88;2.00;;;16.60;66.80;;;;;;6338365;22;20385;-78
2023/05/13 06:05:47;;;;;;;11.95;2.15;;;16.50;66.60;;;;;;6338399;22;20002;-78
2023/05/13 06:08:12;;;;;;;5.60;1.90;;;16.60;66.80;;;;;;6338321;22;20011;-78
2023/05/13 06:10:38;;;;;;;6.15;1.92;;;16.60;66.60;;;;;;6338904;22;19998;-78
2023/05/13 06:13:04;;;;;;;5.80;1.90;;;16.60;66.80;;;;;;6340906;22;20069;-79
2023/05/13 06:15:30;;;;;;;8.10;1.83;;;16.70;66.60;;;;;;6310657;22;20056;-77
2023/05/13 06:17:56;;;;;;;10.43;2.13;;;16.60;66.40;;;;;;6338227;22;20065;-78
2023/05/13 06:20:22;;;;;;;8.45;2.00;;;16.60;66.50;;;;;;6338390;22;20199;-77
2023/05/13 06:22:48;;;;;;;5.68;2.35;;;16.70;66.70;;;;;;6338206;22;20002;-76
2023/05/13 06:25:13;;;;;;;7.47;2.13;;;16.70;66.70;;;;;;6338264;22;20003;-78
2023/05/13 06:27:39;;;;;;;7.97;2.28;;;16.70;66.60;;;;;;6338452;22;19998;-77
2023/05/13 06:30:05;;;;;;;5.72;2.00;;;16.70;66.50;;;;;;6338686;22;20006;-78
2023/05/13 06:32:31;;;;;;;5.68;2.40;;;16.70;66.60;;;;;;6338423;22;20309;-77
2023/05/13 06:34:57;;;;;;;10.95;2.08;;;16.70;66.90;;;;;;6338683;22;20003;-77
2023/05/13 06:37:23;;;;;;;9.50;2.45;;;16.80;66.80;;;;;;6338872;22;20301;-78
2023/05/13 06:39:49;;;;;;;10.23;2.17;;;16.70;66.60;;;;;;6338678;22;20057;-77
2023/05/13 06:42:14;;;;;;;8.27;2.20;;;16.70;66.80;;;;;;6338643;22;19998;-78
2023/05/13 06:44:40;;;;;;;8.73;2.55;;;16.60;66.90;;;;;;6338591;22;20006;-79
2023/05/13 06:47:07;;;;;;;7.43;2.35;;;16.60;67.80;;;;;;6338073;22;20003;-77
2023/05/13 06:49:33;;;;;;;9.32;2.55;;;16.60;67.10;;;;;;6338890;22;20428;-78
2023/05/13 06:51:58;;;;;;;12.88;2.63;;;16.60;67.30;;;;;;6340659;22;19999;-77
2023/05/13 06:54:26;;;;;;;8.27;2.95;;;16.50;67.60;;;;;;6345265;22;19999;-77
2023/05/13 06:56:52;;;;;;;9.32;2.50;;;16.60;67.80;;;;;;6347892;22;20387;-78
2023/05/13 06:59:19;;;;;;;11.63;3.75;;;16.50;67.70;;;;;;6344864;22;20005;-77
2023/05/13 07:01:45;;;;;;;8.35;2.45;;;16.50;67.80;;;;;;6344207;22;20373;-77
2023/05/13 07:04:10;;;;;;;11.63;2.47;;;16.50;67.80;;;;;;6338757;22;20061;-78
2023/05/13 07:06:36;;;;;;;10.40;3.35;;;16.50;67.80;;;;;;6337790;22;20002;-79
2023/05/13 07:09:02;;;;;;;6.18;2.40;;;16.50;67.80;;;;;;6338140;22;20068;-79
2023/05/13 07:11:28;;;;;;;6.07;2.15;;;16.50;67.70;;;;;;6337733;22;19999;-75
2023/05/13 07:13:54;;;;;;;6.38;2.30;;;16.50;67.80;;;;;;6337875;22;20025;-72
2023/05/13 07:16:20;;;;;;;5.57;2.10;;;16.60;67.80;;;;;;6309859;22;19999;-70
2023/05/13 07:18:46;;;;;;;8.23;2.50;;;16.60;67.90;;;;;;6338286;22;20010;-80
2023/05/13 07:21:14;;;;;;;7.32;2.47;;;16.60;68.00;;;;;;6338724;22;20442;-75
2023/05/13 07:23:39;;;;;;;8.65;2.22;;;16.70;67.90;;;;;;6337835;22;20336;-77
2023/05/13 07:26:05;;;;;;;8.93;2.40;;;16.70;67.80;;;;;;6338362;22;20014;-81
2023/05/13 07:28:31;;;;;;;7.82;2.38;;;16.80;68.00;;;;;;6337833;22;20417;-80
2023/05/13 07:30:57;;;;;;;8.80;2.95;;;16.90;68.10;;;;;;6337718;22;20018;-73
2023/05/13 07:33:23;;;;;;;13.23;2.83;;;17.00;68.50;;;;;;6338241;22;20131;-81
2023/05/13 07:35:49;;;;;;;11.25;2.42;;;17.00;68.20;;;;;;6338262;22;20002;-83
2023/05/13 07:38:15;;;;;;;10.55;2.85;;;17.10;68.30;;;;;;6337781;22;20002;-78
2023/05/13 07:40:40;;;;;;;10.02;2.58;;;17.10;68.60;;;;;;6337141;22;20084;-76
2023/05/13 07:43:07;;;;;;;9.02;2.70;;;17.20;68.50;;;;;;6337706;22;20048;-77
2023/05/13 07:45:33;;;;;;;12.07;3.00;;;17.10;68.60;;;;;;6309347;22;20060;-77
2023/05/13 07:47:58;;;;;;;10.45;2.72;;;17.10;68.90;;;;;;6337976;22;20282;-76
2023/05/13 07:50:24;;;;;;;8.93;2.70;;;17.00;69.10;;;;;;6337617;22;20002;-78
2023/05/13 07:52:50;;;;;;;12.02;2.53;;;16.90;69.40;;;;;;6337401;22;20029;-77
2023/05/13 07:55:17;;;;;;;7.53;3.00;;;16.90;69.30;;;;;;6337185;22;20003;-77
2023/05/13 07:57:43;;;;;;;11.32;2.97;;;16.90;69.70;;;;;;6337698;22;20002;-75
2023/05/13 08:00:09;;;;;;;8.10;3.00;;;17.00;69.90;;;;;;6337050;22;20090;-74
2023/05/13 08:02:37;;;;;;;7.78;3.20;;;17.00;70.00;;;;;;6337258;22;20034;-79
2023/05/13 08:05:04;;;;;;;8.10;2.53;;;17.00;70.20;;;;;;6336919;22;20009;-75
2023/05/13 08:07:30;;;;;;;8.52;2.65;;;17.00;70.10;;;;;;6337218;22;19995;-75
2023/05/13 08:09:56;;;;;;;8.45;3.30;;;17.10;70.20;;;;;;6337072;22;20070;-78
2023/05/13 08:12:21;;;;;;;10.23;3.67;;;17.20;70.20;;;;;;6336780;22;19995;-75
2023/05/13 08:14:47;;;;;;;9.25;2.88;;;17.30;70.50;;;;;;6337051;22;20491;-80
2023/05/13 08:17:13;;;;;;;10.82;3.38;;;17.30;70.20;;;;;;6338262;22;20086;-77
2023/05/13 08:19:39;;;;;;;10.63;3.55;;;17.30;70.50;;;;;;6339107;22;20006;-76
2023/05/13 08:22:05;;;;;;;9.82;3.10;;;17.40;70.70;;;;;;6338997;22;20056;-76
2023/05/13 08:24:30;;;;;;;10.00;3.58;;;17.50;70.50;;;;;;6338802;22;20011;-76
2023/05/13 08:26:56;;;;;;;11.93;3.53;;;17.50;70.80;;;;;;6339129;22;19998;-76
2023/05/13 08:29:22;;;;;;;10.35;3.72;;;17.40;71.00;;;;;;6339044;22;20003;-76
2023/05/13 08:31:47;;;;;;;13.55;3.90;;;17.50;71.10;;;;;;6339053;22;20010;-77
2023/05/13 08:34:13;;;;;;;11.25;4.22;;;17.50;71.30;;;;;;6339155;22;20331;-76
2023/05/13 08:36:39;;;;;;;9.30;3.92;;;17.60;71.50;;;;;;6339086;22;20467;-77
2023/05/13 08:39:06;;;;;;;11.77;3.83;;;17.60;72.20;;;;;;6338870;22;20007;-76
2023/05/13 08:41:33;;;;;;;11.02;4.13;;;17.60;71.80;;;;;;6339214;22;20041;-76
2023/05/13 08:44:00;;;;;;;10.45;3.80;;;17.70;71.80;;;;;;6338692;22;20340;-76
2023/05/13 08:46:30;;;;;;;8.77;3.67;;;17.70;71.70;;;;;;6338951;22;19995;-77
2023/05/13 08:48:56;;;;;;;11.10;3.33;;;17.70;71.80;;;;;;6339033;22;20003;-76
2023/05/13 08:51:22;;;;;;;13.35;3.90;;;17.70;72.00;;;;;;6338669;22;19995;-76
2023/05/13 08:53:50;;;;;;;10.98;3.58;;;17.80;72.40;;;;;;6338977;22;20098;-76
2023/05/13 08:56:16;;;;;;;11.30;4.38;;;17.70;72.40;;;;;;6339218;22;20045;-76
2023/05/13 08:58:41;;;;;;;7.90;3.20;;;17.70;72.70;;;;;;6338383;22;20002;-75
2023/05/13 09:01:07;;;;;;;8.98;3.35;;;17.80;72.90;;;;;;6338865;22;19994;-76
2023/05/13 09:03:34;;;;;;;12.05;3.22;;;17.80;72.90;;;;;;6338431;22;20440;-76
2023/05/13 09:06:01;;;;;;;13.50;3.78;;;17.80;72.70;;;;;;6338609;22;20408;-76
2023/05/13 09:08:27;;;;;;;9.90;3.55;;;17.80;72.60;;;;;;6338801;22;20341;-76
2023/05/13 09:10:53;;;;;;;8.88;3.15;;;17.90;73.00;;;;;;6339040;22;20035;-76
2023/05/13 09:13:18;;;;;;;8.75;3.55;;;17.80;73.10;;;;;;6338835;22;20287;-77
2023/05/13 09:15:45;;;;;;;11.07;3.33;;;17.80;73.60;;;;;;6338885;22;20043;-75
2023/05/13 09:18:11;;;;;;;12.93;3.50;;;17.70;73.90;;;;;;6338736;22;20029;-76
2023/05/13 09:20:37;;;;;;;10.27;2.85;;;17.70;74.30;;;;;;6339423;22;20003;-77
2023/05/13 09:23:06;;;;;;;8.93;2.65;;;17.60;74.30;;;;;;6338245;22;20014;-76
2023/05/13 09:25:32;;;;;;;8.32;3.20;;;17.60;74.60;;;;;;6311189;22;20017;-75
2023/05/13 09:28:00;;;;;;;8.85;2.90;;;17.50;74.40;;;;;;6338448;22;19999;-77
2023/05/13 09:30:29;;;;;;;7.40;2.60;;;17.60;74.60;;;;;;6338702;22;20022;-77
2023/05/13 09:33:08;;;;;;;12.30;2.70;;;17.50;74.70;;;;;;6338694;22;20115;-77
2023/05/13 09:35:40;;;;;;;7.47;2.88;;;17.50;75.10;;;;;;6338935;22;20002;-76
2023/05/13 09:38:13;;;;;;;6.30;2.30;;;17.50;74.40;;;;;;6339025;22;20171;-77
2023/05/13 09:40:39;;;;;;;11.13;2.30;;;17.60;74.30;;;;;;6339379;22;20006;-78
2023/05/13 09:43:08;;;;;;;7.30;2.50;;;17.50;74.20;;;;;;6338385;22;20077;-76
2023/05/13 09:45:35;;;;;;;7.57;2.45;;;17.50;74.10;;;;;;6338663;22;20009;-76
2023/05/13 09:48:01;;;;;;;10.75;3.13;;;17.50;74.10;;;;;;6338339;22;20019;-76
2023/05/13 09:50:27;;;;;;;8.13;2.70;;;17.50;74.60;;;;;;6338983;22;20003;-76
2023/05/13 09:52:52;;;;;;;11.02;2.97;;;17.50;74.10;;;;;;6339153;22;19999;-77
2023/05/13 09:55:18;;;;;;;7.43;3.00;;;17.60;74.30;;;;;;6312133;22;20014;-75
2023/05/13 09:57:45;;;;;;;9.65;2.80;;;17.60;74.50;;;;;;6339353;22;20371;-76
2023/05/13 10:00:11;;;;;;;8.52;2.97;;;17.80;74.40;;;;;;6311190;22;20007;-77
2023/05/13 10:02:37;;;;;;;9.77;3.28;;;17.90;74.50;;;;;;6339053;22;20015;-76
2023/05/13 10:05:07;;;;;;;7.43;2.60;;;18.10;74.10;;;;;;6338985;22;20011;-75
2023/05/13 10:07:34;;;;;;;7.20;2.70;;;18.20;74.10;;;;;;6338851;22;19995;-76
2023/05/13 10:10:02;;;;;;;7.38;2.88;;;18.30;73.80;;;;;;6311183;22;20315;-78
2023/05/13 10:12:30;;;;;;;6.93;2.60;;;18.50;73.30;;;;;;6340254;22;20007;-76
2023/05/13 10:14:57;;;;;;;8.20;2.53;;;18.60;73.80;;;;;;6339696;22;20116;-77
2023/05/13 10:17:24;;;;;;;8.48;2.47;;;18.80;73.10;;;;;;6339736;22;20331;-77
2023/05/13 10:19:51;;;;;;;9.52;3.33;;;18.90;72.80;;;;;;6339037;22;19999;-77
2023/05/13 10:22:29;;;;;;;9.00;2.85;;;19.00;72.10;;;;;;6339389;22;20332;-77
2023/05/13 10:25:00;;;;;;;7.22;2.70;;;18.90;72.00;;;;;;6339729;22;20010;-77
2023/05/13 10:27:28;;;;;;;6.05;2.85;;;18.90;72.00;;;;;;6339457;22;20321;-76
2023/05/13 10:29:55;;;;;;;7.53;2.92;;;19.00;72.00;;;;;;6338941;22;20003;-76
2023/05/13 10:32:24;;;;;;;12.35;3.08;;;19.10;71.90;;;;;;6339210;22;20009;-77
2023/05/13 10:34:56;;;;;;;7.07;2.60;;;19.20;71.30;;;;;;6339512;22;20007;-77
2023/05/13 10:37:51;;;;;;;9.73;2.67;;;19.20;71.70;;;;;;6338967;22;20444;-78
2023/05/13 10:40:46;;;;;;;10.70;2.83;;;19.20;71.30;;;;;;6339082;22;20000;-77
2023/05/13 10:43:20;;;;;;;6.68;2.42;;;19.20;70.90;;;;;;6338936;22;20003;-77
2023/05/13 10:45:50;;;;;;;6.43;2.60;;;19.10;70.70;;;;;;6338739;22;20336;-75
2023/05/13 10:48:17;;;;;;;9.00;2.83;;;19.00;70.60;;;;;;6338751;22;20005;-77
2023/05/13 10:50:59;;;;;;;8.63;2.80;;;18.90;70.50;;;;;;6338885;22;20314;-77
2023/05/13 10:53:29;;;;;;;7.60;2.58;;;18.70;70.10;;;;;;6310812;22;20080;-77
2023/05/13 10:55:58;;;;;;;6.50;2.80;;;18.70;70.40;;;;;;6339579;22;20325;-78
2023/05/13 10:58:31;;;;;;;5.97;2.60;;;18.60;70.40;;;;;;6339618;22;20003;-78
2023/05/13 11:01:25;;;;;;;5.65;2.35;;;18.60;70.50;;;;;;6339254;22;20006;-79
2023/05/13 11:03:59;;;;;;;;;;;18.60;70.90;;;;;;6338607;22;20349;-76
2023/05/13 11:06:39;;;;;;;7.68;2.80;;;18.60;70.50;;;;;;6338409;22;20209;-75
2023/05/13 11:09:12;;;;;;;6.88;2.90;;;18.70;70.30;;;;;;6338783;22;20115;-75
2023/05/13 11:11:39;;;;;;;8.98;3.30;;;18.60;70.50;;;;;;6338373;22;20006;-78
2023/05/13 11:14:24;;;;;;;9.30;3.13;;;18.70;70.70;;;;;;6338685;22;20002;-77
2023/05/13 11:16:59;;;;;;;8.73;3.20;;;18.90;71.20;;;;;;6338174;22;20389;-75
2023/05/13 11:19:32;;;;;;;6.95;3.40;;;19.00;71.60;;;;;;6339018;22;20003;-77
2023/05/13 11:22:11;;;;;;;6.82;2.53;;;19.00;71.50;;;;;;6338839;22;20002;-75
2023/05/13 11:24:38;;;;;;;7.50;2.90;;;18.90;71.10;;;;;;6338742;22;20056;-76
2023/05/13 11:27:18;;;;;;;8.98;2.53;;;18.90;70.50;;;;;;6339702;22;19999;-75
2023/05/13 11:29:52;;;;;;;4.93;2.40;;;19.00;70.30;;;;;;6338972;22;20325;-75
2023/05/13 11:32:36;;;;;;;;;;;19.00;70.90;;;;;;6339463;22;20478;-76
2023/05/13 11:35:03;;;;;;;;;;;18.80;70.10;;;;;;6339860;22;19902;-76
2023/05/13 11:37:31;;;;;;;6.28;2.13;;;18.60;69.50;;;;;;6339233;22;20201;-76
2023/05/13 11:39:57;;;;;;;7.68;2.40;;;18.60;69.90;;;;;;6310459;22;20010;-77
2023/05/13 11:42:24;;;;;;;6.03;2.78;;;18.60;70.00;;;;;;6338739;22;20056;-77
2023/05/13 11:44:52;;;;;;;7.60;2.45;;;18.40;69.80;;;;;;6284285;22;20290;-77
2023/05/13 11:47:26;;;;;;;7.22;2.28;;;18.40;70.00;;;;;;6310178;22;20006;-77
2023/05/13 11:49:52;;;;;;;4.20;2.10;;;18.30;69.80;;;;;;6338264;22;19998;-78
2023/05/13 11:52:19;;;;;;;9.48;3.30;;;18.30;69.70;;;;;;6338614;22;19999;-80
2023/05/13 11:54:52;;;;;;;8.02;2.50;;;18.40;69.60;;;;;;6339283;22;20018;-82
2023/05/13 11:57:19;;;;;;;8.73;3.13;;;18.20;69.40;;;;;;6339036;22;20027;-80
2023/05/13 12:00:05;;;;;;;6.78;2.53;;;18.20;69.20;;;;;;6337671;22;20003;-83
2023/05/13 12:02:43;;;;;;;6.40;2.67;;;18.10;69.80;;;;;;6309689;22;20110;-77
2023/05/13 12:05:10;;;;;;;7.20;2.55;;;18.10;69.20;;;;;;6336835;22;20474;-76
2023/05/13 12:07:37;;;;;;;10.50;4.05;;;18.00;69.40;;;;;;6339376;22;20458;-76
2023/05/13 12:10:04;;;;;;;9.07;3.63;;;18.10;69.50;;;;;;6338841;22;20257;-77
2023/05/13 12:12:33;;;;;;;10.43;3.90;;;18.10;69.80;;;;;;6337881;22;20413;-75
2023/05/13 12:15:05;;;;;;;8.73;3.92;;;18.10;70.00;;;;;;6336818;22;19999;-76
2023/05/13 12:17:32;;;;;;;10.20;3.92;;;18.10;70.70;;;;;;6337365;22;20003;-78
2023/05/13 12:20:19;;;;;;;8.93;4.15;;;18.10;70.50;;;;;;6337386;22;20026;-77
2023/05/13 12:22:44;;;;;;;8.20;3.45;;;18.10;71.20;;;;;;6335921;22;20080;-79
2023/05/13 12:25:32;;;;;;;8.75;3.15;;;18.20;71.00;;;;;;6336721;22;20060;-76
2023/05/13 12:28:18;;;;;;;9.30;3.20;;;18.20;71.90;;;;;;6337756;22;20334;-74
2023/05/13 12:31:04;;;;;;;7.50;2.80;;;18.10;72.10;;;;;;6336677;22;20361;-75
2023/05/13 12:33:41;;;;;;;8.07;2.40;;;18.10;72.10;;;;;;6337283;22;20002;-75
2023/05/13 12:36:30;;;;;;;7.07;3.15;;;18.10;72.30;;;;;;6337688;22;20053;-75
2023/05/13 12:38:59;;;;;;;9.10;2.90;;;18.20;71.60;;;;;;6309837;22;20391;-77
2023/05/13 12:41:27;;;;;;;8.30;2.55;;;18.30;71.80;;;;;;6337616;22;20007;-75
2023/05/13 12:44:02;;;;;;;7.97;3.28;;;18.50;71.80;;;;;;6337370;22;20011;-75
2023/05/13 12:46:28;;;;;;;9.43;3.25;;;18.60;71.60;;;;;;6337763;22;20002;-76
2023/05/13 12:48:58;;;;;;;8.75;3.17;;;18.70;71.40;;;;;;6338028;22;20026;-83